Time;durP1;ratioP1;P1;durP2;ratioP2;P2;SDS_P1;SDS_P2;PMS_P1;PMS_P2;Temp;Humidity;BMP_temperature;BMP_pressure;BME280_temperature;BME280_humidity;BME280_pressure;Samples;Min_cycle;Max_cycle;Signal;HPM_P1;HPM_P2
2022/03/14 00:02:01;;;;;;;;;1.00;1.00;;;;;10.86;65.43;101574.22;5035802;28;50974;-81
2022/03/14 00:04:28;;;;;;;;;3.00;1.67;;;;;10.87;65.20;101580.41;5035928;28;46539;-82
2022/03/14 00:06:53;;;;;;;;;2.67;1.33;;;;;10.88;65.04;101582.19;5035843;28;45506;-81
2022/03/14 00:09:19;;;;;;;;;2.67;2.00;;;;;10.89;65.19;101584.88;5035713;28;46673;-82
2022/03/14 00:11:44;;;;;;;;;1.00;1.00;;;;;10.86;64.98;101581.25;5035582;28;45319;-82
2022/03/14 00:14:10;;;;;;;;;3.00;1.00;;;;;10.92;65.05;101592.88;5033957;28;46761;-83
2022/03/14 00:16:39;;;;;;;;;2.33;1.00;;;;;10.92;64.86;101595.50;5035582;28;45490;-82
2022/03/14 00:19:07;;;;;;;;;3.00;1.00;;;;;10.90;64.89;101599.84;5035338;28;45594;-82
2022/03/14 00:21:38;;;;;;;;;1.00;1.00;;;;;10.89;64.79;101606.00;5036053;28;45335;-81
2022/03/14 00:24:05;;;;;;;;;5.00;2.00;;;;;10.89;64.83;101607.75;5033021;28;46759;-82
2022/03/14 00:26:34;;;;;;;;;7.67;2.00;;;;;10.90;64.88;101626.28;5026046;28;46168;-82
2022/03/14 00:28:59;;;;;;;;;3.00;1.67;;;;;10.92;64.64;101626.28;5035436;28;45536;-81
2022/03/14 00:31:25;;;;;;;;;2.33;1.00;;;;;10.90;64.96;101633.31;5034941;28;53331;-83
2022/03/14 00:33:51;;;;;;;;;4.33;1.00;;;;;10.93;64.84;101639.56;5014016;28;48383;-82
2022/03/14 00:36:16;;;;;;;;;2.00;1.00;;;;;10.93;64.49;101644.84;5032923;28;45319;-82
2022/03/14 00:38:42;;;;;;;;;4.33;1.33;;;;;10.96;64.70;101638.72;5034545;28;45430;-82
2022/03/14 00:41:08;;;;;;;;;1.00;1.00;;;;;10.96;64.43;101650.19;5035415;28;45398;-81
2022/03/14 00:43:34;;;;;;;;;2.33;2.00;;;;;10.94;64.50;101645.75;5034915;28;46542;-82
2022/03/14 00:46:00;;;;;;;;;2.00;2.00;;;;;10.93;64.37;101644.84;5035670;28;45765;-82
2022/03/14 00:48:27;;;;;;;;;0.67;0.67;;;;;10.98;64.72;101667.00;5035593;28;48021;-82
2022/03/14 00:50:53;;;;;;;;;1.33;1.33;;;;;10.96;64.40;101673.97;5037696;28;45526;-81
2022/03/14 00:53:18;;;;;;;;;0.67;0.00;;;;;10.97;64.47;101683.72;5037382;28;46678;-82
2022/03/14 00:55:43;;;;;;;;;1.00;1.00;;;;;10.98;64.53;101690.78;5038181;28;45402;-82
2022/03/14 00:58:09;;;;;;;;;3.00;2.00;;;;;10.97;64.49;101689.00;5038735;28;45367;-81
2022/03/14 01:00:34;;;;;;;;;1.67;1.00;;;;;10.96;64.46;101687.19;5039898;28;50040;-83
2022/03/14 01:03:00;;;;;;;;;2.67;2.00;;;;;10.97;64.29;101698.63;5037119;28;61880;-82
2022/03/14 01:05:26;;;;;;;;;3.00;1.00;;;;;10.97;64.25;101699.56;5037834;28;45417;-81
2022/03/14 01:07:52;;;;;;;;;1.00;1.00;;;;;10.97;64.45;101707.50;5038534;28;45539;-81
2022/03/14 01:10:17;;;;;;;;;0.00;0.00;;;;;10.99;64.45;101716.34;5038441;28;51717;-82
2022/03/14 01:12:43;;;;;;;;;2.00;1.00;;;;;10.99;64.30;101705.75;5036513;28;58752;-82
2022/03/14 01:15:09;;;;;;;;;3.00;1.00;;;;;11.01;64.42;101717.25;5038603;28;45512;-82
2022/03/14 01:17:34;;;;;;;;;5.67;1.00;;;;;11.02;64.31;101724.34;5038677;28;45302;-82
2022/03/14 01:20:00;;;;;;;;;3.00;2.00;;;;;10.98;64.33;101718.94;5037639;28;52061;-81
2022/03/14 01:22:25;;;;;;;;;0.67;0.67;;;;;11.04;64.39;101734.94;5037367;28;46797;-83
2022/03/14 01:24:51;;;;;;;;;3.00;1.00;;;;;11.06;64.23;101750.81;5037412;28;61779;-82
2022/03/14 01:27:16;;;;;;;;;2.00;1.00;;;;;11.08;64.30;101743.81;5038045;28;49247;-82
2022/03/14 01:29:42;;;;;;;;;1.00;1.00;;;;;11.12;64.34;101750.97;5037690;28;56481;-84
2022/03/14 01:32:09;;;;;;;;;7.00;2.00;;;;;11.11;63.95;101751.84;5038082;28;47002;-81
2022/03/14 01:34:35;;;;;;;;;2.00;1.00;;;;;11.13;64.01;101758.03;5037788;28;45460;-82
2022/03/14 01:37:02;;;;;;;;;4.00;1.00;;;;;11.13;64.03;101750.09;5036051;28;59346;-82
2022/03/14 01:39:27;;;;;;;;;0.00;0.00;;;;;11.15;64.22;101754.59;5038538;28;45378;-81
2022/03/14 01:41:55;;;;;;;;;4.00;1.00;;;;;11.17;63.99;101773.13;5038228;28;47406;-82
2022/03/14 01:44:20;;;;;;;;;2.00;1.00;;;;;11.16;63.83;101756.38;5037052;28;46448;-81
2022/03/14 01:46:45;;;;;;;;;0.00;0.00;;;;;11.15;64.09;101761.63;5048304;28;45394;-83
2022/03/14 01:49:11;;;;;;;;;1.00;1.00;;;;;11.17;64.00;101762.53;5039262;28;49263;-83
2022/03/14 01:51:39;;;;;;;;;3.33;1.33;;;;;11.17;64.02;101766.06;5037621;28;46108;-83
2022/03/14 01:54:05;;;;;;;;;3.00;0.00;;;;;11.13;63.86;101755.38;5036312;28;45536;-82
2022/03/14 01:56:30;;;;;;;;;1.33;1.00;;;;;11.17;63.96;101770.47;5020072;28;45405;-82
2022/03/14 01:58:56;;;;;;;;;1.00;1.00;;;;;11.10;63.92;101763.25;5039924;28;53854;-82
2022/03/14 02:01:22;;;;;;;;;2.00;1.00;;;;;11.11;63.96;101783.53;5038040;28;45689;-82
2022/03/14 02:03:50;;;;;;;;;1.00;0.00;;;;;11.08;64.01;101776.44;5037376;28;45857;-82
2022/03/14 02:06:18;;;;;;;;;4.33;1.00;;;;;11.02;63.96;101771.91;5035539;28;45493;-82
2022/03/14 02:08:46;;;;;;;;;3.33;0.00;;;;;10.93;63.84;101760.22;5037803;28;45554;-82
2022/03/14 02:11:13;;;;;;;;;3.33;2.00;;;;;10.93;64.02;101776.97;5037519;28;46596;-81
2022/03/14 02:13:38;;;;;;;;;1.00;0.00;;;;;10.86;64.12;101780.28;5037242;28;45263;-82
2022/03/14 02:16:03;;;;;;;;;3.67;1.00;;;;;10.84;64.12;101783.75;5037196;28;55046;-82
2022/03/14 02:18:29;;;;;;;;;5.33;2.00;;;;;10.82;64.33;101780.19;5038127;28;56931;-81
2022/03/14 02:20:54;;;;;;;;;3.00;1.00;;;;;10.75;64.44;101780.03;5038805;28;46594;-82
2022/03/14 02:23:20;;;;;;;;;1.67;1.00;;;;;10.76;64.25;101791.50;5037652;28;45342;-81
2022/03/14 02:25:50;;;;;;;;;1.00;1.00;;;;;10.64;64.46;101772.69;5036964;28;45504;-82
2022/03/14 02:28:19;;;;;;;;;5.33;1.00;;;;;10.71;64.39;101788.75;5032124;28;45462;-82
2022/03/14 02:30:44;;;;;;;;;8.00;2.00;;;;;10.67;64.59;101780.69;5037138;28;46745;-81
2022/03/14 02:33:11;;;;;;;;;3.67;1.00;;;;;10.58;64.67;101781.34;5037266;28;45675;-81
2022/03/14 02:35:38;;;;;;;;;2.00;1.00;;;;;10.53;64.82;101780.31;5037611;28;45549;-83
2022/03/14 02:38:03;;;;;;;;;1.67;1.67;;;;;10.55;64.72;101788.31;5035906;28;47392;-81
2022/03/14 02:40:28;;;;;;;;;4.00;1.00;;;;;10.56;64.74;101801.53;5035484;28;65323;-82
2022/03/14 02:42:54;;;;;;;;;4.33;2.00;;;;;10.55;64.76;101798.88;5035037;28;63565;-84
2022/03/14 02:45:19;;;;;;;;;3.00;1.00;;;;;10.51;64.81;101803.16;5037902;28;45641;-83
2022/03/14 02:47:45;;;;;;;;;1.00;1.00;;;;;10.47;64.71;101812.75;5041628;28;56286;-81
2022/03/14 02:50:11;;;;;;;;;3.00;1.00;;;;;10.43;64.81;101816.16;5036444;28;47602;-80
2022/03/14 02:52:36;;;;;;;;;8.33;3.00;;;;;10.37;64.86;101818.63;5036234;28;59006;-81
2022/03/14 02:55:02;;;;;;;;;1.00;1.00;;;;;10.35;65.08;101816.81;5037075;28;45235;-81
2022/03/14 02:57:28;;;;;;;;;1.00;1.00;;;;;10.30;65.06;101827.22;5036828;28;45257;-82
2022/03/14 02:59:56;;;;;;;;;2.33;1.00;;;;;10.26;65.12;101830.63;5020705;28;46510;-82
2022/03/14 03:02:25;;;;;;;;;3.00;1.00;;;;;10.21;65.31;101827.81;5036282;28;45515;-82
2022/03/14 03:04:51;;;;;;;;;3.00;3.00;;;;;10.20;65.32;101831.31;5035595;28;45519;-82
2022/03/14 03:07:19;;;;;;;;;4.00;1.00;;;;;10.15;65.21;101835.56;5036726;28;45334;-82
2022/03/14 03:09:45;;;;;;;;;1.00;1.00;;;;;10.13;65.47;101841.66;5036827;28;47570;-82
2022/03/14 03:12:13;;;;;;;;;8.00;2.00;;;;;10.18;65.54;101850.63;5035462;28;45412;-82
2022/03/14 03:14:41;;;;;;;;;4.00;1.00;;;;;10.22;65.55;101861.28;5036678;28;45564;-81
2022/03/14 03:17:08;;;;;;;;;4.00;1.00;;;;;10.23;65.62;101856.94;5035384;28;45491;-81
2022/03/14 03:19:33;;;;;;;;;6.33;1.00;;;;;10.23;65.68;101871.06;5036310;28;46783;-81
2022/03/14 03:21:58;;;;;;;;;8.00;2.25;;;;;10.18;65.61;101869.97;5036033;28;50579;-82
2022/03/14 03:24:25;;;;;;;;;3.00;1.00;;;;;10.23;65.61;101885.97;5036056;28;54087;-82
2022/03/14 03:26:51;;;;;;;;;1.00;1.00;;;;;10.23;65.52;101886.88;5035166;28;45519;-82
2022/03/14 03:29:17;;;;;;;;;5.33;1.00;;;;;10.19;65.56;101884.06;5035277;28;47074;-81
2022/03/14 03:31:42;;;;;;;;;2.00;2.00;;;;;10.19;65.73;101897.28;5035478;28;58417;-81
2022/03/14 03:34:07;;;;;;;;;2.33;1.00;;;;;10.15;65.70;101895.38;5036077;28;45532;-82
2022/03/14 03:36:33;;;;;;;;;7.67;1.67;;;;;10.16;65.77;101905.06;5035560;28;55129;-80
2022/03/14 03:38:58;;;;;;;;;2.75;1.00;;;;;10.13;65.88;101910.28;5036288;28;47383;-82
2022/03/14 03:41:24;;;;;;;;;3.00;3.00;;;;;10.09;65.74;101922.47;5035768;28;60030;-81
2022/03/14 03:43:50;;;;;;;;;1.67;1.00;;;;;9.97;65.87;101919.47;5036337;28;45287;-82
2022/03/14 03:46:16;;;;;;;;;2.00;1.00;;;;;10.02;65.74;101935.47;5036007;28;52837;-83
2022/03/14 03:48:43;;;;;;;;;6.33;1.00;;;;;9.98;65.89;101934.44;5039593;28;46627;-81
2022/03/14 03:51:09;;;;;;;;;0.67;0.00;;;;;9.95;65.81;101932.59;5032404;28;56629;-82
2022/03/14 03:53:34;;;;;;;;;1.75;1.00;;;;;9.92;65.85;101936.91;5035892;28;50027;-83
2022/03/14 03:56:00;;;;;;;;;3.00;0.00;;;;;9.87;66.09;101938.50;5036031;28;45280;-81
2022/03/14 03:58:25;;;;;;;;;2.50;1.50;;;;;9.85;65.85;101943.72;5036031;28;46589;-83
2022/03/14 04:00:53;;;;;;;;;0.67;0.67;;;;;9.82;66.01;101954.19;5037057;28;60206;-82
2022/03/14 04:03:20;;;;;;;;;4.00;2.00;;;;;9.73;65.86;101935.41;5036033;28;45370;-82
2022/03/14 04:05:46;;;;;;;;;4.00;2.00;;;;;9.78;65.97;101962.84;5035945;28;45428;-82
2022/03/14 04:08:11;;;;;;;;;2.00;2.00;;;;;9.76;66.39;101966.28;5035720;28;45485;-82
2022/03/14 04:10:37;;;;;;;;;1.00;1.00;;;;;9.77;66.07;101960.16;5018095;28;47223;-82
2022/03/14 04:13:06;;;;;;;;;4.00;3.00;;;;;9.81;66.43;101962.06;5035936;28;45385;-82
2022/03/14 04:15:40;;;;;;;;;2.50;1.75;;;;;9.84;66.23;101970.03;5032241;28;45451;-81
2022/03/14 04:18:07;;;;;;;;;2.25;1.75;;;;;9.86;66.38;101971.00;5034372;28;47266;-81
2022/03/14 04:20:34;;;;;;;;;5.25;2.50;;;;;9.87;66.36;101976.31;5035795;28;45451;-82
2022/03/14 04:22:59;;;;;;;;;3.00;1.33;;;;;9.88;66.54;101978.13;5037198;28;45314;-81
2022/03/14 04:25:24;;;;;;;;;7.33;1.00;;;;;9.92;66.52;101984.41;5039293;28;45583;-82
2022/03/14 04:27:51;;;;;;;;;1.67;1.33;;;;;9.91;66.30;101988.78;5038969;28;46386;-82
2022/03/14 04:30:17;;;;;;;;;1.00;1.00;;;;;9.91;66.43;101990.53;5037754;28;46798;-81
2022/03/14 04:32:43;;;;;;;;;6.25;2.00;;;;;9.88;65.94;101988.66;5039194;28;49687;-82
2022/03/14 04:35:09;;;;;;;;;2.00;1.75;;;;;9.94;66.13;101991.50;5039354;28;45395;-82
2022/03/14 04:37:37;;;;;;;;;4.00;3.00;;;;;9.94;66.23;101998.50;5037569;28;47614;-82
2022/03/14 04:40:03;;;;;;;;;6.75;3.00;;;;;9.96;65.97;102010.03;5033121;28;45473;-82
2022/03/14 04:42:28;;;;;;;;;3.00;2.00;;;;;9.94;65.93;102017.88;5037609;28;45466;-82
2022/03/14 04:44:54;;;;;;;;;5.75;2.25;;;;;9.93;66.15;102017.84;5038727;28;56500;-82
2022/03/14 04:47:20;;;;;;;;;2.75;1.50;;;;;9.89;65.89;102016.84;5040939;28;47839;-82
2022/03/14 04:49:45;;;;;;;;;4.50;2.00;;;;;9.90;65.97;102037.09;5038839;28;45446;-82
2022/03/14 04:52:11;;;;;;;;;7.67;1.00;;;;;9.88;66.04;102032.63;5037472;28;45830;-82
2022/03/14 04:54:39;;;;;;;;;2.75;1.25;;;;;9.86;66.02;102027.31;5038044;28;55774;-82
2022/03/14 04:57:05;;;;;;;;;3.00;2.00;;;;;9.83;66.09;102048.28;5037790;28;45997;-82
2022/03/14 04:59:30;;;;;;;;;2.75;2.00;;;;;9.80;66.05;102039.38;5041359;28;45818;-82
2022/03/14 05:01:55;;;;;;;;;2.75;1.50;;;;;9.81;65.87;102049.09;5037728;28;55748;-81
2022/03/14 05:04:21;;;;;;;;;1.75;1.00;;;;;9.75;65.75;102041.88;5037050;28;53586;-81
2022/03/14 05:06:46;;;;;;;;;4.25;2.00;;;;;9.71;65.93;102039.97;5038083;28;60076;-81
2022/03/14 05:09:12;;;;;;;;;3.00;1.25;;;;;9.67;65.82;102041.59;5036940;28;58051;-82
2022/03/14 05:11:40;;;;;;;;;6.75;2.00;;;;;9.63;65.77;102039.69;5039030;28;45325;-81
2022/03/14 05:14:08;;;;;;;;;2.75;1.25;;;;;9.59;66.04;102055.38;5038680;28;45496;-82
2022/03/14 05:16:52;;;;;;;;;3.50;2.50;;;;;9.56;66.18;102055.28;5040772;28;47507;-81
2022/03/14 05:19:35;;;;;;;;;3.25;1.75;;;;;9.56;66.07;102065.81;5036084;28;45510;-81
2022/03/14 05:22:56;;;;;;;;;7.25;1.75;;;;;9.53;66.01;102074.50;5034742;28;45480;-82
2022/03/14 05:25:22;;;;;;;;;8.00;2.75;;;;;9.51;66.22;102072.66;5031337;28;45500;-81
2022/03/14 05:27:47;;;;;;;;;1.50;1.50;;;;;9.49;66.18;102082.28;5038006;28;47541;-83
2022/03/14 05:30:14;;;;;;;;;5.25;3.00;;;;;9.47;66.16;102084.84;5037151;28;46089;-81
2022/03/14 05:32:40;;;;;;;;;6.00;2.25;;;;;9.47;66.17;102087.47;5038763;28;45508;-82
2022/03/14 05:35:07;;;;;;;;;6.00;2.75;;;;;9.41;66.08;102077.59;5036038;28;45439;-83
2022/03/14 05:37:32;;;;;;;;;1.50;1.50;;;;;9.43;66.28;102083.84;5037908;28;46587;-81
2022/03/14 05:39:58;;;;;;;;;2.00;2.00;;;;;9.37;66.01;102077.44;5038317;28;45467;-84
2022/03/14 05:42:25;;;;;;;;;8.00;2.00;;;;;9.34;66.02;102067.69;5036590;28;45324;-82
2022/03/14 05:44:50;;;;;;;;;6.00;4.00;;;;;9.40;66.21;102083.72;5042079;28;45531;-82
2022/03/14 05:47:16;;;;;;;;;1.75;0.50;;;;;9.41;66.19;102095.16;5039763;28;46882;-82
2022/03/14 05:49:41;;;;;;;;;6.00;2.50;;;;;9.40;66.16;102093.38;5037761;28;60099;-82
2022/03/14 05:52:07;;;;;;;;;4.00;3.00;;;;;9.32;66.17;102090.47;5037534;28;55945;-82
2022/03/14 05:54:34;;;;;;;;;2.25;2.25;;;;;9.31;66.27;102088.66;5037754;28;45500;-83
2022/03/14 05:57:03;;;;;;;;;3.00;3.00;;;;;9.32;66.16;102105.38;5037664;28;47794;-82
2022/03/14 06:00:25;;;;;;;;;6.25;4.25;;;;;9.31;66.36;102119.38;5042145;28;45465;-82
2022/03/14 06:06:30;;;;;;;;;4.00;2.75;;;;;9.17;66.10;102109.25;4992991;28;45773;-83
2022/03/14 06:08:55;;;;;;;;;6.25;3.00;;;;;9.22;66.28;102125.25;5030102;28;59717;-82
2022/03/14 06:11:21;;;;;;;;;5.00;3.50;;;;;9.21;66.12;102127.78;5036085;28;63172;-82
2022/03/14 06:13:47;;;;;;;;;4.00;2.75;;;;;9.12;66.38;102117.81;5036544;28;45462;-81
2022/03/14 06:16:13;;;;;;;;;9.25;2.75;;;;;9.13;66.09;102131.03;5034454;28;45649;-80
2022/03/14 06:18:40;;;;;;;;;7.00;3.00;;;;;9.11;66.22;102143.28;5037081;28;45814;-83
2022/03/14 06:21:08;;;;;;;;;3.50;3.50;;;;;9.07;65.97;102136.09;5035055;28;45531;-81
2022/03/14 06:23:44;;;;;;;;;7.50;2.00;;;;;9.07;66.09;102145.75;5036427;28;45546;-80
2022/03/14 06:26:14;;;;;;;;;3.75;2.75;;;;;9.04;66.22;102141.22;5036629;28;45510;-80
2022/03/14 06:28:40;;;;;;;;;7.00;2.50;;;;;9.02;66.10;102150.81;5034491;28;46483;-80
2022/03/14 06:31:05;;;;;;;;;4.75;2.75;;;;;9.02;66.29;102155.19;5035623;28;45463;-79
2022/03/14 06:33:30;;;;;;;;;7.00;4.25;;;;;9.00;66.50;102156.84;5035286;28;50077;-77
2022/03/14 06:35:57;;;;;;;;;6.25;4.25;;;;;8.99;66.24;102162.97;5035674;28;45481;-78
2022/03/14 06:38:22;;;;;;;;;7.50;4.75;;;;;9.00;66.37;102175.28;5048136;28;64574;-83
2022/03/14 06:40:50;;;;;;;;;9.25;6.00;;;;;8.99;66.49;102184.03;5035342;28;61450;-77
2022/03/14 06:43:19;;;;;;;;;7.75;5.00;;;;;8.99;66.46;102190.22;5034778;28;45846;-80
2022/03/14 06:45:47;;;;;;;;;7.25;6.00;;;;;9.00;66.18;102201.66;5035946;28;45504;-80
2022/03/14 06:48:13;;;;;;;;;6.00;3.50;;;;;9.00;66.47;102202.56;5035399;28;48416;-82
2022/03/14 06:50:39;;;;;;;;;6.00;3.50;;;;;9.01;66.52;102208.72;5034814;28;45432;-79
2022/03/14 06:53:05;;;;;;;;;8.25;6.00;;;;;9.00;66.65;102210.47;5031351;28;45820;-81
2022/03/14 06:55:35;;;;;;;;;11.25;4.25;;;;;9.00;66.65;102209.53;5029869;28;56965;-80
2022/03/14 06:58:01;;;;;;;;;7.00;5.75;;;;;8.98;66.76;102198.06;5032155;28;46823;-85
2022/03/14 07:00:33;;;;;;;;;11.75;6.00;;;;;9.02;66.97;102211.41;5015837;28;48154;-78
2022/03/14 07:03:00;;;;;;;;;6.00;6.00;;;;;9.01;66.79;102199.09;5032630;28;45479;-79
2022/03/14 07:05:26;;;;;;;;;8.75;4.50;;;;;9.06;66.98;102212.44;5035965;28;45408;-79
2022/03/14 07:07:51;;;;;;;;;8.00;4.00;;;;;9.07;66.86;102222.16;5034625;28;46353;-78
2022/03/14 07:13:40;;;;;;;;;9.50;7.25;;;;;8.87;68.70;102247.69;5028790;28;45605;-77
2022/03/14 07:19:45;;;;;;;;;14.00;8.00;;;;;8.43;71.24;102257.28;5030855;28;45595;-77
2022/03/14 07:22:26;;;;;;;;;13.75;10.25;;;;;8.39;71.80;102263.22;5034919;28;45540;-79
2022/03/14 07:24:59;;;;;;;;;16.50;13.25;;;;;8.30;72.21;102253.16;5035339;28;45537;-79
2022/03/14 07:27:25;;;;;;;;;9.00;7.00;;;;;8.33;72.56;102268.19;5033812;28;45612;-78
2022/03/14 07:30:02;;;;;;;;;10.75;7.00;;;;;8.35;72.25;102270.06;5034617;28;63307;-80
2022/03/14 07:40:49;;;;;;;;;9.50;5.00;;;;;8.54;71.12;102287.59;5029910;28;45485;-76
2022/03/14 07:43:38;;;;;;;;;7.00;5.00;;;;;8.57;70.86;102292.06;5032835;28;46025;-78
2022/03/14 07:46:03;;;;;;;;;11.25;7.00;;;;;8.59;70.77;102299.22;5032110;28;45590;-79
2022/03/14 07:48:29;;;;;;;;;8.25;7.00;;;;;8.65;70.24;102304.72;5034424;28;46076;-79
2022/03/14 07:50:54;;;;;;;;;10.25;6.50;;;;;8.78;70.16;102308.75;5034477;28;57472;-78
2022/03/14 07:53:20;;;;;;;;;7.50;6.75;;;;;8.91;69.77;102319.00;5138180;22;47457;-79
2022/03/14 07:55:45;;;;;;;;;7.00;7.00;;;;;9.05;69.49;102329.19;5011707;28;59947;-76
2022/03/14 07:58:11;;;;;;;;;13.00;7.75;;;;;9.19;69.55;102330.66;5017201;28;56301;-76
2022/03/14 08:00:36;;;;;;;;;7.75;6.00;;;;;9.30;69.09;102324.09;5019115;28;45497;-77
2022/03/14 08:03:02;;;;;;;;;7.25;7.00;;;;;9.41;68.64;102327.16;5023916;28;46583;-75
2022/03/14 08:05:27;;;;;;;;;7.75;6.00;;;;;9.48;68.42;102328.28;5022621;28;45492;-75
2022/03/14 08:07:53;;;;;;;;;4.50;3.75;;;;;9.56;68.19;102318.94;5020532;28;45798;-75
2022/03/14 08:10:19;;;;;;;;;7.75;6.75;;;;;9.63;68.25;102319.22;5029109;28;45535;-75
2022/03/14 08:12:51;;;;;;;;;7.25;5.75;;;;;9.65;68.12;102317.56;5027744;28;45705;-78
2022/03/14 08:15:26;;;;;;;;;7.75;4.00;;;;;9.78;68.10;102331.22;5015306;28;45382;-79
2022/03/14 08:17:52;;;;;;;;;12.00;6.00;;;;;9.85;67.53;102336.78;5013753;28;45676;-80
2022/03/14 08:20:19;;;;;;;;;7.75;6.50;;;;;9.91;67.54;102346.69;4990836;28;46037;-79
2022/03/14 08:22:45;;;;;;;;;6.00;3.00;;;;;9.94;67.76;102350.31;4998110;28;46678;-79
2022/03/14 08:25:11;;;;;;;;;11.00;7.25;;;;;10.00;67.75;102347.00;5014268;28;45373;-79
2022/03/14 08:27:36;;;;;;;;;8.00;5.75;;;;;10.03;67.62;102344.50;5017725;28;45605;-79
2022/03/14 08:30:02;;;;;;;;;7.75;5.75;;;;;10.14;67.45;102352.81;5010638;28;56957;-79
2022/03/14 08:32:28;;;;;;;;;3.33;3.33;;;;;10.16;67.15;102343.22;5028399;28;47447;-77
2022/03/14 08:34:53;;;;;;;;;10.25;5.25;;;;;10.25;67.12;102345.34;4981658;28;46366;-76
2022/03/14 08:37:19;;;;;;;;;9.00;7.00;;;;;10.32;67.08;102356.16;5017207;28;45488;-76
2022/03/14 08:39:48;;;;;;;;;9.25;6.00;;;;;10.36;66.95;102352.78;5015629;28;45380;-75
2022/03/14 08:42:14;;;;;;;;;10.00;7.25;;;;;10.43;66.87;102362.72;5020858;28;47275;-76
2022/03/14 08:44:40;;;;;;;;;9.50;5.25;;;;;10.47;66.96;102364.63;5018456;28;45544;-78
2022/03/14 08:47:06;;;;;;;;;8.25;4.00;;;;;10.53;66.93;102379.81;5022146;28;46007;-77
2022/03/14 08:49:31;;;;;;;;;10.00;7.00;;;;;10.56;66.85;102365.81;5027181;28;45582;-75
2022/03/14 08:51:57;;;;;;;;;8.25;7.00;;;;;10.63;66.75;102381.03;4990147;28;45493;-75
2022/03/14 08:54:22;;;;;;;;;7.75;4.75;;;;;10.67;66.47;102380.31;5023541;28;45567;-77
2022/03/14 08:56:47;;;;;;;;;11.25;6.50;;;;;10.72;66.61;102390.19;5014387;28;46106;-77
2022/03/14 08:59:13;;;;;;;;;11.25;6.00;;;;;10.77;66.36;102390.34;5019067;28;45352;-75
2022/03/14 09:01:39;;;;;;;;;9.75;6.50;;;;;10.82;66.30;102391.41;5020241;28;47181;-75
2022/03/14 09:04:05;;;;;;;;;8.00;4.33;;;;;10.81;66.32;102383.41;5018044;28;46170;-75
2022/03/14 09:06:31;;;;;;;;;7.25;5.25;;;;;10.87;66.47;102378.38;5015946;28;46505;-75
2022/03/14 09:08:56;;;;;;;;;4.00;4.00;;;;;10.93;66.07;102376.81;5021072;28;45361;-75
2022/03/14 09:11:22;;;;;;;;;11.50;6.00;;;;;10.96;66.02;102387.50;5017252;28;64439;-76
2022/03/14 09:13:48;;;;;;;;;12.00;7.75;;;;;11.02;66.01;102392.09;5024283;28;45384;-76
2022/03/14 09:16:13;;;;;;;;;9.00;4.00;;;;;11.06;66.28;102385.16;5017262;28;45389;-75
2022/03/14 09:18:39;;;;;;;;;6.25;5.75;;;;;11.12;66.24;102385.38;5013493;28;45546;-76
2022/03/14 09:21:04;;;;;;;;;12.67;7.00;;;;;11.17;65.99;102389.97;4995904;28;56348;-74
2022/03/14 09:23:30;;;;;;;;;12.50;6.00;;;;;11.21;65.92;102385.69;5017636;28;45548;-75
2022/03/14 09:25:56;;;;;;;;;11.00;5.33;;;;;11.26;65.80;102385.00;5018114;28;45388;-74
2022/03/14 09:28:21;;;;;;;;;17.00;8.50;;;;;11.28;65.43;102391.22;5017842;28;45503;-75
2022/03/14 09:30:47;;;;;;;;;10.75;7.75;;;;;11.33;65.63;102391.38;5022649;28;45778;-74
2022/03/14 09:33:12;;;;;;;;;7.67;5.00;;;;;11.42;65.69;102398.72;5000807;28;45328;-74
2022/03/14 09:35:38;;;;;;;;;10.00;7.75;;;;;11.44;65.66;102389.97;5021983;28;48197;-75
2022/03/14 09:38:03;;;;;;;;;12.00;6.50;;;;;11.49;65.17;102392.75;5022007;28;45467;-75
2022/03/14 09:40:30;;;;;;;;;8.50;7.75;;;;;11.53;65.41;102390.28;5001095;28;47123;-75
2022/03/14 09:42:56;;;;;;;;;11.00;10.33;;;;;11.53;65.45;102384.09;5022047;28;45430;-75
2022/03/14 09:45:21;;;;;;;;;14.00;8.00;;;;;11.64;65.47;102397.66;5025543;28;45527;-74
2022/03/14 09:47:48;;;;;;;;;11.25;10.25;;;;;11.70;64.91;102409.31;5026758;28;46957;-74
2022/03/14 09:50:20;;;;;;;;;10.00;9.00;;;;;11.75;65.34;102405.06;5002294;28;46185;-75
2022/03/14 09:52:46;;;;;;;;;12.00;8.00;;;;;11.82;65.41;102400.91;5001557;28;45516;-77
2022/03/14 09:55:12;;;;;;;;;11.00;5.33;;;;;11.88;65.23;102403.75;5009600;28;45548;-75
2022/03/14 09:57:38;;;;;;;;;7.67;4.33;;;;;11.89;65.15;102391.44;5023439;28;45736;-78
2022/03/14 10:00:07;;;;;;;;;6.33;5.33;;;;;11.99;64.38;102404.09;5014494;28;45852;-74
2022/03/14 10:02:33;;;;;;;;;9.33;6.00;;;;;12.04;64.47;102413.06;5029770;28;45432;-75
2022/03/14 10:04:58;;;;;;;;;12.75;6.00;;;;;12.09;64.33;102413.19;4998993;28;45383;-74
2022/03/14 10:07:23;;;;;;;;;9.00;5.67;;;;;12.17;64.50;102411.69;4999952;28;45477;-76
2022/03/14 10:09:51;;;;;;;;;13.00;7.67;;;;;12.22;64.44;102413.59;5002383;28;63789;-76
2022/03/14 10:12:17;;;;;;;;;10.75;7.25;;;;;12.28;64.47;102411.13;5022321;28;45515;-76
2022/03/14 10:14:43;;;;;;;;;11.33;9.33;;;;;12.34;64.31;102410.41;5017341;28;45510;-75
2022/03/14 10:17:09;;;;;;;;;13.00;8.67;;;;;12.37;63.86;102399.91;4999101;28;45492;-75
2022/03/14 10:19:34;;;;;;;;;12.33;7.00;;;;;12.45;63.89;102403.66;5025409;28;45494;-76
2022/03/14 10:22:52;;;;;;;;;12.75;11.00;;;;;12.50;63.83;102412.66;5018112;28;45514;-75
2022/03/14 10:25:18;;;;;;;;;10.00;10.00;;;;;12.55;63.94;102415.44;5014756;28;45574;-75
2022/03/14 10:27:55;;;;;;;;;10.33;9.33;;;;;12.65;63.68;102425.44;5019604;28;45612;-76
2022/03/14 10:30:22;;;;;;;;;13.33;9.33;;;;;12.72;63.45;102424.75;5028673;28;47616;-76
2022/03/14 10:32:48;;;;;;;;;9.33;7.00;;;;;12.74;63.33;102425.69;5021474;28;45595;-76
2022/03/14 10:35:18;;;;;;;;;10.00;6.25;;;;;12.81;62.92;102432.94;5025271;28;45553;-76
2022/03/14 10:37:57;;;;;;;;;12.00;6.00;;;;;12.84;62.86;102433.06;5021677;28;45492;-76
2022/03/14 10:40:30;;;;;;;;;11.33;8.33;;;;;12.91;62.54;102427.91;4999243;28;47384;-77
2022/03/14 10:42:55;;;;;;;;;20.00;10.33;;;;;12.98;62.36;102433.41;5029930;28;45365;-77
2022/03/14 10:45:21;;;;;;;;;13.67;11.00;;;;;13.01;62.13;102416.69;5017389;28;45474;-77
2022/03/14 10:47:47;;;;;;;;;8.33;6.00;;;;;13.04;61.41;102420.31;5020529;28;54694;-77
2022/03/14 10:50:38;;;;;;;;;14.67;7.33;;;;;13.05;60.97;102408.88;5025458;28;47288;-76
2022/03/14 10:53:15;;;;;;;;;7.33;6.33;;;;;13.13;60.92;102418.75;5016556;28;45752;-79
2022/03/14 10:55:42;;;;;;;;;7.00;5.67;;;;;13.18;61.32;102415.38;5016410;28;45448;-74
2022/03/14 10:58:09;;;;;;;;;8.67;5.00;;;;;13.23;60.95;102418.19;5021372;28;45523;-76
2022/03/14 11:00:58;;;;;;;;;11.00;5.67;;;;;13.25;60.08;102416.44;5013400;28;46335;-77
2022/03/14 11:03:27;;;;;;;;;14.00;9.00;;;;;13.31;60.37;102425.47;5014937;28;45579;-78
2022/03/14 11:05:54;;;;;;;;;11.00;6.67;;;;;13.34;60.68;102422.91;5001169;28;45596;-77
2022/03/14 11:08:36;;;;;;;;;13.33;10.00;;;;;13.44;60.67;102439.94;4999951;28;45373;-77
2022/03/14 11:11:22;;;;;;;;;12.33;7.00;;;;;13.54;60.32;102427.81;5018609;28;46310;-76
2022/03/14 11:13:49;;;;;;;;;11.00;6.00;;;;;13.55;60.23;102419.88;5023007;28;45425;-76
2022/03/14 11:16:25;;;;;;;;;11.00;6.33;;;;;13.62;60.18;102419.16;5002258;28;45430;-77
2022/03/14 11:18:51;;;;;;;;;9.00;6.33;;;;;13.68;60.62;102420.16;5017559;28;45464;-77
2022/03/14 11:21:19;;;;;;;;;9.00;7.00;;;;;13.70;60.47;102410.50;5015687;28;45582;-77
2022/03/14 11:23:45;;;;;;;;;5.67;5.33;;;;;13.78;60.34;102411.56;4987923;28;45780;-77
2022/03/14 11:26:11;;;;;;;;;11.33;6.00;;;;;13.82;59.28;102398.38;5018071;28;45527;-78
2022/03/14 11:28:37;;;;;;;;;4.33;4.33;;;;;13.89;59.37;102396.75;5004594;28;45659;-78
2022/03/14 11:31:03;;;;;;;;;9.00;6.00;;;;;13.99;59.26;102403.19;4992025;28;46472;-76
2022/03/14 11:33:30;;;;;;;;;9.33;6.00;;;;;14.03;58.76;102397.06;5022097;28;45526;-78
2022/03/14 11:35:55;;;;;;;;;3.33;3.00;;;;;14.07;58.74;102405.16;5005061;28;45374;-77
2022/03/14 11:38:21;;;;;;;;;8.67;4.67;;;;;14.10;59.14;102391.03;5018959;28;51463;-77
2022/03/14 11:40:47;;;;;;;;;13.33;4.33;;;;;14.13;58.84;102392.00;5009481;28;53123;-77
2022/03/14 11:43:13;;;;;;;;;12.67;4.67;;;;;14.19;58.33;102399.19;5006722;28;45442;-76
2022/03/14 11:45:38;;;;;;;;;8.67;4.33;;;;;14.25;57.21;102386.03;5021487;28;45445;-75
2022/03/14 11:48:07;;;;;;;;;4.33;4.00;;;;;14.27;57.41;102383.41;5017896;28;45654;-78